sensor_id;sensor_type;location;lat;lon;timestamp;temperature;humidity
70366;DHT22;57787;48.216;12.396;2023-11-21T00:00:56;5.60;86.70
70366;DHT22;57787;48.216;12.396;2023-11-21T00:03:24;5.70;86.70
70366;DHT22;57787;48.216;12.396;2023-11-21T00:05:55;5.70;86.70
70366;DHT22;57787;48.216;12.396;2023-11-21T00:08:22;5.80;86.60
70366;DHT22;57787;48.216;12.396;2023-11-21T00:10:49;5.90;86.70
70366;DHT22;57787;48.216;12.396;2023-11-21T00:13:17;6.00;86.50
70366;DHT22;57787;48.216;12.396;2023-11-21T00:15:44;6.00;86.40
70366;DHT22;57787;48.216;12.396;2023-11-21T00:18:11;6.10;86.50
70366;DHT22;57787;48.216;12.396;2023-11-21T00:20:40;6.10;86.40
70366;DHT22;57787;48.216;12.396;2023-11-21T00:23:07;6.20;86.30
70366;DHT22;57787;48.216;12.396;2023-11-21T00:25:36;6.20;86.30
70366;DHT22;57787;48.216;12.396;2023-11-21T00:28:03;6.20;86.50
70366;DHT22;57787;48.216;12.396;2023-11-21T00:30:30;6.10;86.20
70366;DHT22;57787;48.216;12.396;2023-11-21T00:32:57;6.10;86.20
70366;DHT22;57787;48.216;12.396;2023-11-21T00:35:29;6.00;86.10
70366;DHT22;57787;48.216;12.396;2023-11-21T00:37:59;5.90;86.40
70366;DHT22;57787;48.216;12.396;2023-11-21T00:40:25;5.70;86.50
70366;DHT22;57787;48.216;12.396;2023-11-21T00:42:52;5.60;86.70
70366;DHT22;57787;48.216;12.396;2023-11-21T00:45:19;5.60;86.90
70366;DHT22;57787;48.216;12.396;2023-11-21T00:47:46;5.50;87.20
70366;DHT22;57787;48.216;12.396;2023-11-21T00:50:13;5.50;87.30
70366;DHT22;57787;48.216;12.396;2023-11-21T00:52:41;5.40;87.50
70366;DHT22;57787;48.216;12.396;2023-11-21T00:55:09;5.40;87.70
70366;DHT22;57787;48.216;12.396;2023-11-21T00:57:36;5.30;87.70
70366;DHT22;57787;48.216;12.396;2023-11-21T01:00:04;5.40;88.00
70366;DHT22;57787;48.216;12.396;2023-11-21T01:02:40;5.50;88.00
70366;DHT22;57787;48.216;12.396;2023-11-21T01:05:07;5.60;87.90
70366;DHT22;57787;48.216;12.396;2023-11-21T01:07:34;5.60;87.90
70366;DHT22;57787;48.216;12.396;2023-11-21T01:10:03;5.60;87.90
70366;DHT22;57787;48.216;12.396;2023-11-21T01:12:37;5.60;87.90
70366;DHT22;57787;48.216;12.396;2023-11-21T01:15:05;5.70;88.00
70366;DHT22;57787;48.216;12.396;2023-11-21T01:17:40;5.80;87.90
70366;DHT22;57787;48.216;12.396;2023-11-21T01:20:08;5.80;88.00
70366;DHT22;57787;48.216;12.396;2023-11-21T01:22:41;5.90;88.00
70366;DHT22;57787;48.216;12.396;2023-11-21T01:25:10;6.00;88.60
70366;DHT22;57787;48.216;12.396;2023-11-21T01:27:37;6.10;88.40
70366;DHT22;57787;48.216;12.396;2023-11-21T01:30:07;6.20;88.30
70366;DHT22;57787;48.216;12.396;2023-11-21T01:32:39;6.20;88.20
70366;DHT22;57787;48.216;12.396;2023-11-21T01:35:06;6.20;88.10
70366;DHT22;57787;48.216;12.396;2023-11-21T01:37:37;6.20;88.30
70366;DHT22;57787;48.216;12.396;2023-11-21T01:40:04;6.20;88.20
70366;DHT22;57787;48.216;12.396;2023-11-21T01:42:35;6.20;88.20
70366;DHT22;57787;48.216;12.396;2023-11-21T01:45:02;6.30;88.50
70366;DHT22;57787;48.216;12.396;2023-11-21T01:47:32;6.30;88.60
70366;DHT22;57787;48.216;12.396;2023-11-21T01:50:03;6.30;88.50
70366;DHT22;57787;48.216;12.396;2023-11-21T01:52:31;6.30;88.20
70366;DHT22;57787;48.216;12.396;2023-11-21T01:54:58;6.40;87.80
70366;DHT22;57787;48.216;12.396;2023-11-21T01:57:27;6.40;87.80
70366;DHT22;57787;48.216;12.396;2023-11-21T01:59:54;6.40;87.80
70366;DHT22;57787;48.216;12.396;2023-11-21T02:02:23;6.40;87.50
70366;DHT22;57787;48.216;12.396;2023-11-21T02:04:50;6.40;87.50
70366;DHT22;57787;48.216;12.396;2023-11-21T02:07:19;6.50;87.50
70366;DHT22;57787;48.216;12.396;2023-11-21T02:09:48;6.40;87.50
70366;DHT22;57787;48.216;12.396;2023-11-21T02:12:15;6.40;87.50
70366;DHT22;57787;48.216;12.396;2023-11-21T02:14:42;6.40;87.60
70366;DHT22;57787;48.216;12.396;2023-11-21T02:17:09;6.40;87.60
70366;DHT22;57787;48.216;12.396;2023-11-21T02:19:36;6.40;87.70
70366;DHT22;57787;48.216;12.396;2023-11-21T02:22:03;6.50;87.70
70366;DHT22;57787;48.216;12.396;2023-11-21T02:24:35;6.40;87.50
70366;DHT22;57787;48.216;12.396;2023-11-21T02:27:01;6.40;87.50
70366;DHT22;57787;48.216;12.396;2023-11-21T02:29:31;6.40;87.60
70366;DHT22;57787;48.216;12.396;2023-11-21T02:31:58;6.40;87.60
70366;DHT22;57787;48.216;12.396;2023-11-21T02:34:27;6.40;87.60
70366;DHT22;57787;48.216;12.396;2023-11-21T02:36:54;6.30;87.60
70366;DHT22;57787;48.216;12.396;2023-11-21T02:39:21;6.40;87.80
70366;DHT22;57787;48.216;12.396;2023-11-21T02:41:49;6.30;87.80
70366;DHT22;57787;48.216;12.396;2023-11-21T02:44:16;6.40;87.90
70366;DHT22;57787;48.216;12.396;2023-11-21T02:46:44;6.40;87.90
70366;DHT22;57787;48.216;12.396;2023-11-21T02:49:10;6.40;87.90
70366;DHT22;57787;48.216;12.396;2023-11-21T02:51:41;6.30;87.80
70366;DHT22;57787;48.216;12.396;2023-11-21T02:54:10;6.30;87.80
70366;DHT22;57787;48.216;12.396;2023-11-21T02:56:43;6.30;88.00
70366;DHT22;57787;48.216;12.396;2023-11-21T02:59:10;6.20;88.10
70366;DHT22;57787;48.216;12.396;2023-11-21T03:01:38;6.20;88.20
70366;DHT22;57787;48.216;12.396;2023-11-21T03:04:07;6.20;88.50
70366;DHT22;57787;48.216;12.396;2023-11-21T03:06:34;6.20;88.40
70366;DHT22;57787;48.216;12.396;2023-11-21T03:09:02;6.20;88.40
70366;DHT22;57787;48.216;12.396;2023-11-21T03:11:28;6.20;88.50
70366;DHT22;57787;48.216;12.396;2023-11-21T03:13:56;6.20;88.50
70366;DHT22;57787;48.216;12.396;2023-11-21T03:16:23;6.20;88.80
70366;DHT22;57787;48.216;12.396;2023-11-21T03:18:50;6.30;88.70
70366;DHT22;57787;48.216;12.396;2023-11-21T03:21:17;6.30;88.90
70366;DHT22;57787;48.216;12.396;2023-11-21T03:23:44;6.30;89.00
70366;DHT22;57787;48.216;12.396;2023-11-21T03:26:12;6.30;88.90
70366;DHT22;57787;48.216;12.396;2023-11-21T03:28:39;6.30;89.10
70366;DHT22;57787;48.216;12.396;2023-11-21T03:31:06;6.30;89.10
70366;DHT22;57787;48.216;12.396;2023-11-21T03:33:34;6.20;89.20
70366;DHT22;57787;48.216;12.396;2023-11-21T03:36:02;6.30;89.40
70366;DHT22;57787;48.216;12.396;2023-11-21T03:38:30;6.20;89.30
70366;DHT22;57787;48.216;12.396;2023-11-21T03:40:56;6.30;89.40
70366;DHT22;57787;48.216;12.396;2023-11-21T03:43:23;6.30;89.90
70366;DHT22;57787;48.216;12.396;2023-11-21T03:45:51;6.30;90.20
70366;DHT22;57787;48.216;12.396;2023-11-21T03:48:18;6.40;90.10
70366;DHT22;57787;48.216;12.396;2023-11-21T03:50:45;6.40;90.20
70366;DHT22;57787;48.216;12.396;2023-11-21T03:53:12;6.40;90.10
70366;DHT22;57787;48.216;12.396;2023-11-21T03:55:41;6.50;89.90
70366;DHT22;57787;48.216;12.396;2023-11-21T03:58:08;6.60;89.70
70366;DHT22;57787;48.216;12.396;2023-11-21T04:00:35;6.60;89.70
70366;DHT22;57787;48.216;12.396;2023-11-21T04:03:02;6.60;89.70
70366;DHT22;57787;48.216;12.396;2023-11-21T04:05:32;6.60;89.60
70366;DHT22;57787;48.216;12.396;2023-11-21T04:08:00;6.60;89.60
70366;DHT22;57787;48.216;12.396;2023-11-21T04:10:26;6.60;89.60
70366;DHT22;57787;48.216;12.396;2023-11-21T04:12:55;6.60;89.60
70366;DHT22;57787;48.216;12.396;2023-11-21T04:15:21;6.60;89.70
70366;DHT22;57787;48.216;12.396;2023-11-21T04:17:48;6.50;89.60
70366;DHT22;57787;48.216;12.396;2023-11-21T04:20:15;6.60;89.60
70366;DHT22;57787;48.216;12.396;2023-11-21T04:22:42;6.50;89.60
70366;DHT22;57787;48.216;12.396;2023-11-21T04:25:12;6.50;89.60
70366;DHT22;57787;48.216;12.396;2023-11-21T04:27:41;6.50;89.50
70366;DHT22;57787;48.216;12.396;2023-11-21T04:30:10;6.50;89.50
70366;DHT22;57787;48.216;12.396;2023-11-21T04:32:37;6.40;89.50
70366;DHT22;57787;48.216;12.396;2023-11-21T04:35:06;6.30;89.60
70366;DHT22;57787;48.216;12.396;2023-11-21T04:37:33;6.30;89.60
70366;DHT22;57787;48.216;12.396;2023-11-21T04:40:00;6.20;89.80
70366;DHT22;57787;48.216;12.396;2023-11-21T04:42:27;6.20;89.80
70366;DHT22;57787;48.216;12.396;2023-11-21T04:44:55;6.20;89.90
70366;DHT22;57787;48.216;12.396;2023-11-21T04:47:23;6.20;89.90
70366;DHT22;57787;48.216;12.396;2023-11-21T04:49:50;6.20;90.00
70366;DHT22;57787;48.216;12.396;2023-11-21T04:52:17;6.10;90.00
70366;DHT22;57787;48.216;12.396;2023-11-21T04:54:44;6.10;89.80
70366;DHT22;57787;48.216;12.396;2023-11-21T04:57:11;6.10;89.80
70366;DHT22;57787;48.216;12.396;2023-11-21T04:59:39;6.00;89.70
70366;DHT22;57787;48.216;12.396;2023-11-21T05:02:06;5.80;89.60
70366;DHT22;57787;48.216;12.396;2023-11-21T05:04:33;5.70;89.90
70366;DHT22;57787;48.216;12.396;2023-11-21T05:07:00;5.50;89.80
70366;DHT22;57787;48.216;12.396;2023-11-21T05:09:27;5.40;89.80
70366;DHT22;57787;48.216;12.396;2023-11-21T05:11:58;5.30;89.80
70366;DHT22;57787;48.216;12.396;2023-11-21T05:14:25;5.10;89.90
70366;DHT22;57787;48.216;12.396;2023-11-21T05:16:51;5.00;89.90
70366;DHT22;57787;48.216;12.396;2023-11-21T05:19:19;5.00;90.20
70366;DHT22;57787;48.216;12.396;2023-11-21T05:21:47;4.90;90.30
70366;DHT22;57787;48.216;12.396;2023-11-21T05:24:14;4.90;90.60
70366;DHT22;57787;48.216;12.396;2023-11-21T05:26:41;4.90;90.80
70366;DHT22;57787;48.216;12.396;2023-11-21T05:29:08;4.90;90.90
70366;DHT22;57787;48.216;12.396;2023-11-21T05:31:47;5.00;91.00
70366;DHT22;57787;48.216;12.396;2023-11-21T05:34:15;5.00;91.20
70366;DHT22;57787;48.216;12.396;2023-11-21T05:36:44;5.10;91.40
70366;DHT22;57787;48.216;12.396;2023-11-21T05:39:14;5.10;91.40
70366;DHT22;57787;48.216;12.396;2023-11-21T05:41:44;5.20;91.60
70366;DHT22;57787;48.216;12.396;2023-11-21T05:44:14;5.20;91.60
70366;DHT22;57787;48.216;12.396;2023-11-21T05:46:41;5.30;91.60
70366;DHT22;57787;48.216;12.396;2023-11-21T05:49:12;5.30;91.60
70366;DHT22;57787;48.216;12.396;2023-11-21T05:51:39;5.40;91.60
70366;DHT22;57787;48.216;12.396;2023-11-21T05:54:06;5.40;91.50
70366;DHT22;57787;48.216;12.396;2023-11-21T05:56:34;5.40;91.50
70366;DHT22;57787;48.216;12.396;2023-11-21T05:59:01;5.40;91.50
70366;DHT22;57787;48.216;12.396;2023-11-21T06:01:30;5.50;91.50
70366;DHT22;57787;48.216;12.396;2023-11-21T06:03:57;5.50;91.50
70366;DHT22;57787;48.216;12.396;2023-11-21T06:06:25;5.50;91.50
70366;DHT22;57787;48.216;12.396;2023-11-21T06:08:54;5.60;91.50
70366;DHT22;57787;48.216;12.396;2023-11-21T06:11:20;5.60;91.50
70366;DHT22;57787;48.216;12.396;2023-11-21T06:13:47;5.60;91.60
70366;DHT22;57787;48.216;12.396;2023-11-21T06:16:14;5.70;91.60
70366;DHT22;57787;48.216;12.396;2023-11-21T06:18:45;5.70;91.50
70366;DHT22;57787;48.216;12.396;2023-11-21T06:21:12;5.80;91.50
70366;DHT22;57787;48.216;12.396;2023-11-21T06:23:40;5.80;91.60
70366;DHT22;57787;48.216;12.396;2023-11-21T06:26:07;5.80;91.60
70366;DHT22;57787;48.216;12.396;2023-11-21T06:28:36;5.90;91.50
70366;DHT22;57787;48.216;12.396;2023-11-21T06:31:03;5.90;91.50
70366;DHT22;57787;48.216;12.396;2023-11-21T06:33:32;5.90;91.50
70366;DHT22;57787;48.216;12.396;2023-11-21T06:35:59;6.00;91.50
70366;DHT22;57787;48.216;12.396;2023-11-21T06:38:27;6.00;91.50
70366;DHT22;57787;48.216;12.396;2023-11-21T06:40:56;6.10;91.50
70366;DHT22;57787;48.216;12.396;2023-11-21T06:43:24;6.10;91.40
70366;DHT22;57787;48.216;12.396;2023-11-21T06:45:52;6.20;91.40
70366;DHT22;57787;48.216;12.396;2023-11-21T06:48:19;6.30;91.40
70366;DHT22;57787;48.216;12.396;2023-11-21T06:50:46;6.30;91.20
70366;DHT22;57787;48.216;12.396;2023-11-21T06:53:13;6.30;91.10
70366;DHT22;57787;48.216;12.396;2023-11-21T06:55:41;6.30;91.10
70366;DHT22;57787;48.216;12.396;2023-11-21T06:58:09;6.30;91.00
70366;DHT22;57787;48.216;12.396;2023-11-21T07:00:36;6.40;90.90
70366;DHT22;57787;48.216;12.396;2023-11-21T07:03:03;6.40;90.90
70366;DHT22;57787;48.216;12.396;2023-11-21T07:05:31;6.40;90.80
70366;DHT22;57787;48.216;12.396;2023-11-21T07:08:00;6.40;90.80
70366;DHT22;57787;48.216;12.396;2023-11-21T07:10:31;6.40;90.80
70366;DHT22;57787;48.216;12.396;2023-11-21T07:12:58;6.40;90.80
70366;DHT22;57787;48.216;12.396;2023-11-21T07:15:24;6.40;90.90
70366;DHT22;57787;48.216;12.396;2023-11-21T07:17:54;6.40;90.90
70366;DHT22;57787;48.216;12.396;2023-11-21T07:20:21;6.50;90.90
70366;DHT22;57787;48.216;12.396;2023-11-21T07:22:49;6.50;90.90
70366;DHT22;57787;48.216;12.396;2023-11-21T07:25:16;6.50;91.00
70366;DHT22;57787;48.216;12.396;2023-11-21T07:27:43;6.50;90.90
70366;DHT22;57787;48.216;12.396;2023-11-21T07:30:11;6.60;90.90
70366;DHT22;57787;48.216;12.396;2023-11-21T07:32:47;6.60;90.90
70366;DHT22;57787;48.216;12.396;2023-11-21T07:35:14;6.60;90.90
70366;DHT22;57787;48.216;12.396;2023-11-21T07:37:41;6.60;90.90
70366;DHT22;57787;48.216;12.396;2023-11-21T07:40:11;6.60;90.90
70366;DHT22;57787;48.216;12.396;2023-11-21T07:42:38;6.70;91.00
70366;DHT22;57787;48.216;12.396;2023-11-21T07:45:08;6.70;91.00
70366;DHT22;57787;48.216;12.396;2023-11-21T07:47:40;6.80;91.00
70366;DHT22;57787;48.216;12.396;2023-11-21T07:50:10;7.00;90.90
70366;DHT22;57787;48.216;12.396;2023-11-21T07:52:39;7.20;90.70
70366;DHT22;57787;48.216;12.396;2023-11-21T07:55:08;7.30;90.50
70366;DHT22;57787;48.216;12.396;2023-11-21T07:57:34;7.30;90.30
70366;DHT22;57787;48.216;12.396;2023-11-21T08:00:05;7.50;90.00
70366;DHT22;57787;48.216;12.396;2023-11-21T08:02:35;7.60;90.00
70366;DHT22;57787;48.216;12.396;2023-11-21T08:05:08;7.70;89.60
70366;DHT22;57787;48.216;12.396;2023-11-21T08:07:41;7.80;89.40
70366;DHT22;57787;48.216;12.396;2023-11-21T08:10:09;7.90;89.30
70366;DHT22;57787;48.216;12.396;2023-11-21T08:12:36;8.10;89.00
70366;DHT22;57787;48.216;12.396;2023-11-21T08:15:05;8.20;88.90
70366;DHT22;57787;48.216;12.396;2023-11-21T08:17:32;8.30;88.10
70366;DHT22;57787;48.216;12.396;2023-11-21T08:19:59;8.40;88.20
70366;DHT22;57787;48.216;12.396;2023-11-21T08:22:26;8.50;87.80
70366;DHT22;57787;48.216;12.396;2023-11-21T08:24:53;8.60;87.40
70366;DHT22;57787;48.216;12.396;2023-11-21T08:27:21;8.80;87.00
70366;DHT22;57787;48.216;12.396;2023-11-21T08:29:52;8.80;87.00
70366;DHT22;57787;48.216;12.396;2023-11-21T08:32:19;8.80;86.70
70366;DHT22;57787;48.216;12.396;2023-11-21T08:34:52;8.80;86.80
70366;DHT22;57787;48.216;12.396;2023-11-21T08:37:19;8.70;86.50
70366;DHT22;57787;48.216;12.396;2023-11-21T08:39:47;8.70;86.80
70366;DHT22;57787;48.216;12.396;2023-11-21T08:42:15;8.70;87.10
70366;DHT22;57787;48.216;12.396;2023-11-21T08:44:45;8.80;86.50
70366;DHT22;57787;48.216;12.396;2023-11-21T08:47:12;9.20;86.30
70366;DHT22;57787;48.216;12.396;2023-11-21T08:49:39;9.50;84.90
70366;DHT22;57787;48.216;12.396;2023-11-21T08:52:08;9.80;83.00
70366;DHT22;57787;48.216;12.396;2023-11-21T08:54:34;9.90;82.30
70366;DHT22;57787;48.216;12.396;2023-11-21T08:57:01;10.20;82.10
70366;DHT22;57787;48.216;12.396;2023-11-21T08:59:30;10.40;80.90
70366;DHT22;57787;48.216;12.396;2023-11-21T09:01:56;10.50;79.50
70366;DHT22;57787;48.216;12.396;2023-11-21T09:04:23;10.70;79.00
70366;DHT22;57787;48.216;12.396;2023-11-21T09:06:50;10.70;78.70
70366;DHT22;57787;48.216;12.396;2023-11-21T09:09:17;10.80;78.20
70366;DHT22;57787;48.216;12.396;2023-11-21T09:11:44;10.80;76.80
70366;DHT22;57787;48.216;12.396;2023-11-21T09:14:12;10.70;75.70
70366;DHT22;57787;48.216;12.396;2023-11-21T09:16:41;10.70;77.60
70366;DHT22;57787;48.216;12.396;2023-11-21T09:19:09;10.80;78.00
70366;DHT22;57787;48.216;12.396;2023-11-21T09:21:36;10.80;78.60
70366;DHT22;57787;48.216;12.396;2023-11-21T09:24:03;10.80;76.60
70366;DHT22;57787;48.216;12.396;2023-11-21T09:26:32;10.80;74.90
70366;DHT22;57787;48.216;12.396;2023-11-21T09:28:59;10.80;74.20
70366;DHT22;57787;48.216;12.396;2023-11-21T09:31:25;10.80;76.20
70366;DHT22;57787;48.216;12.396;2023-11-21T09:33:55;10.80;73.40
70366;DHT22;57787;48.216;12.396;2023-11-21T09:36:21;10.80;74.80
70366;DHT22;57787;48.216;12.396;2023-11-21T09:38:56;10.80;74.90
70366;DHT22;57787;48.216;12.396;2023-11-21T09:41:33;10.90;75.80
70366;DHT22;57787;48.216;12.396;2023-11-21T09:44:03;11.00;75.70
70366;DHT22;57787;48.216;12.396;2023-11-21T09:46:34;11.00;75.10
70366;DHT22;57787;48.216;12.396;2023-11-21T09:49:00;11.00;75.70
70366;DHT22;57787;48.216;12.396;2023-11-21T09:51:31;10.90;74.60
70366;DHT22;57787;48.216;12.396;2023-11-21T09:53:59;10.90;74.50
70366;DHT22;57787;48.216;12.396;2023-11-21T09:56:29;10.70;75.10
70366;DHT22;57787;48.216;12.396;2023-11-21T09:58:59;10.50;75.00
70366;DHT22;57787;48.216;12.396;2023-11-21T10:01:35;10.50;77.50
70366;DHT22;57787;48.216;12.396;2023-11-21T10:04:03;10.40;76.20
70366;DHT22;57787;48.216;12.396;2023-11-21T10:06:32;10.50;76.50
70366;DHT22;57787;48.216;12.396;2023-11-21T10:08:59;10.70;75.40
70366;DHT22;57787;48.216;12.396;2023-11-21T10:11:25;10.80;77.20
70366;DHT22;57787;48.216;12.396;2023-11-21T10:13:54;10.80;76.60
70366;DHT22;57787;48.216;12.396;2023-11-21T10:16:21;10.70;76.80
70366;DHT22;57787;48.216;12.396;2023-11-21T10:18:51;10.70;75.80
70366;DHT22;57787;48.216;12.396;2023-11-21T10:21:19;10.60;76.40
70366;DHT22;57787;48.216;12.396;2023-11-21T10:23:49;10.50;76.50
70366;DHT22;57787;48.216;12.396;2023-11-21T10:26:16;10.50;77.10
70366;DHT22;57787;48.216;12.396;2023-11-21T10:29:00;10.50;77.00
70366;DHT22;57787;48.216;12.396;2023-11-21T10:31:29;10.50;77.30
70366;DHT22;57787;48.216;12.396;2023-11-21T10:34:11;10.40;76.70
70366;DHT22;57787;48.216;12.396;2023-11-21T10:36:43;10.30;77.90
70366;DHT22;57787;48.216;12.396;2023-11-21T10:39:17;10.30;78.90
70366;DHT22;57787;48.216;12.396;2023-11-21T10:41:46;10.20;78.90
70366;DHT22;57787;48.216;12.396;2023-11-21T10:44:14;10.10;79.00
70366;DHT22;57787;48.216;12.396;2023-11-21T10:46:53;10.20;80.20
70366;DHT22;57787;48.216;12.396;2023-11-21T10:49:25;10.10;80.90
70366;DHT22;57787;48.216;12.396;2023-11-21T10:51:53;10.10;80.20
70366;DHT22;57787;48.216;12.396;2023-11-21T10:54:21;10.20;81.30
70366;DHT22;57787;48.216;12.396;2023-11-21T10:56:48;10.30;80.40
70366;DHT22;57787;48.216;12.396;2023-11-21T10:59:22;10.40;79.90
70366;DHT22;57787;48.216;12.396;2023-11-21T11:01:57;10.50;79.20
70366;DHT22;57787;48.216;12.396;2023-11-21T11:04:25;10.70;78.80
70366;DHT22;57787;48.216;12.396;2023-11-21T11:06:54;11.00;79.00
70366;DHT22;57787;48.216;12.396;2023-11-21T11:09:22;11.10;75.80
70366;DHT22;57787;48.216;12.396;2023-11-21T11:11:49;11.40;76.20
70366;DHT22;57787;48.216;12.396;2023-11-21T11:14:23;11.60;77.10
70366;DHT22;57787;48.216;12.396;2023-11-21T11:16:57;11.80;75.40
70366;DHT22;57787;48.216;12.396;2023-11-21T11:19:26;12.00;72.30
70366;DHT22;57787;48.216;12.396;2023-11-21T11:27:16;12.00;73.30
70366;DHT22;57787;48.216;12.396;2023-11-21T11:32:26;11.50;73.40
70366;DHT22;57787;48.216;12.396;2023-11-21T11:35:01;11.30;74.40
70366;DHT22;57787;48.216;12.396;2023-11-21T11:37:30;11.30;74.20
70366;DHT22;57787;48.216;12.396;2023-11-21T11:39:57;11.30;74.20
70366;DHT22;57787;48.216;12.396;2023-11-21T11:42:25;11.40;75.20
70366;DHT22;57787;48.216;12.396;2023-11-21T11:44:53;11.50;74.60
70366;DHT22;57787;48.216;12.396;2023-11-21T11:50:22;11.80;74.00
70366;DHT22;57787;48.216;12.396;2023-11-21T11:52:45;11.70;74.00
70366;DHT22;57787;48.216;12.396;2023-11-21T11:55:16;11.50;74.40
70366;DHT22;57787;48.216;12.396;2023-11-21T11:57:55;11.30;75.70
70366;DHT22;57787;48.216;12.396;2023-11-21T12:02:52;10.90;77.90
70366;DHT22;57787;48.216;12.396;2023-11-21T12:05:25;10.70;79.10
70366;DHT22;57787;48.216;12.396;2023-11-21T12:07:54;10.60;79.60
70366;DHT22;57787;48.216;12.396;2023-11-21T12:10:25;10.50;79.70
70366;DHT22;57787;48.216;12.396;2023-11-21T12:12:54;10.40;80.10
70366;DHT22;57787;48.216;12.396;2023-11-21T12:15:23;10.40;80.80
70366;DHT22;57787;48.216;12.396;2023-11-21T12:17:59;10.30;81.00
70366;DHT22;57787;48.216;12.396;2023-11-21T12:20:26;10.30;80.30
70366;DHT22;57787;48.216;12.396;2023-11-21T12:23:05;10.30;81.50
70366;DHT22;57787;48.216;12.396;2023-11-21T12:25:32;10.20;80.50
70366;DHT22;57787;48.216;12.396;2023-11-21T12:28:00;10.10;81.10
70366;DHT22;57787;48.216;12.396;2023-11-21T12:30:30;10.00;82.00
70366;DHT22;57787;48.216;12.396;2023-11-21T12:33:03;10.00;82.50
70366;DHT22;57787;48.216;12.396;2023-11-21T12:35:31;10.00;83.10
70366;DHT22;57787;48.216;12.396;2023-11-21T12:38:01;10.00;81.80
70366;DHT22;57787;48.216;12.396;2023-11-21T12:40:29;10.10;82.40
70366;DHT22;57787;48.216;12.396;2023-11-21T12:42:56;10.30;81.90
70366;DHT22;57787;48.216;12.396;2023-11-21T12:45:27;10.40;81.10
70366;DHT22;57787;48.216;12.396;2023-11-21T12:48:01;10.50;81.20
70366;DHT22;57787;48.216;12.396;2023-11-21T12:50:30;10.50;80.40
70366;DHT22;57787;48.216;12.396;2023-11-21T12:53:05;10.50;80.10
70366;DHT22;57787;48.216;12.396;2023-11-21T12:55:32;10.50;80.60
70366;DHT22;57787;48.216;12.396;2023-11-21T12:58:01;10.40;80.80
70366;DHT22;57787;48.216;12.396;2023-11-21T13:00:36;10.40;81.40
70366;DHT22;57787;48.216;12.396;2023-11-21T13:03:06;10.40;81.30
70366;DHT22;57787;48.216;12.396;2023-11-21T13:05:38;10.40;81.00
70366;DHT22;57787;48.216;12.396;2023-11-21T13:08:07;10.30;81.70
70366;DHT22;57787;48.216;12.396;2023-11-21T13:10:36;10.30;81.90
70366;DHT22;57787;48.216;12.396;2023-11-21T13:13:05;10.40;81.40
70366;DHT22;57787;48.216;12.396;2023-11-21T13:15:33;10.30;81.00
70366;DHT22;57787;48.216;12.396;2023-11-21T13:18:01;10.30;81.20
70366;DHT22;57787;48.216;12.396;2023-11-21T13:20:28;10.20;81.40
70366;DHT22;57787;48.216;12.396;2023-11-21T13:22:58;10.20;81.40
70366;DHT22;57787;48.216;12.396;2023-11-21T13:25:28;10.20;81.90
70366;DHT22;57787;48.216;12.396;2023-11-21T13:27:55;10.30;81.80
70366;DHT22;57787;48.216;12.396;2023-11-21T13:30:22;10.30;81.20
70366;DHT22;57787;48.216;12.396;2023-11-21T13:33:04;10.40;81.00
70366;DHT22;57787;48.216;12.396;2023-11-21T13:35:36;10.40;80.60
70366;DHT22;57787;48.216;12.396;2023-11-21T13:38:14;10.40;80.90
70366;DHT22;57787;48.216;12.396;2023-11-21T13:40:46;10.50;80.50
70366;DHT22;57787;48.216;12.396;2023-11-21T13:43:17;10.40;80.70
70366;DHT22;57787;48.216;12.396;2023-11-21T13:45:48;10.40;80.60
70366;DHT22;57787;48.216;12.396;2023-11-21T13:48:18;10.40;81.10
70366;DHT22;57787;48.216;12.396;2023-11-21T13:50:48;10.30;81.00
70366;DHT22;57787;48.216;12.396;2023-11-21T13:53:26;10.30;80.70
70366;DHT22;57787;48.216;12.396;2023-11-21T13:55:56;10.20;81.80
70366;DHT22;57787;48.216;12.396;2023-11-21T13:58:27;10.20;81.70
70366;DHT22;57787;48.216;12.396;2023-11-21T14:01:13;10.20;82.30
70366;DHT22;57787;48.216;12.396;2023-11-21T14:04:05;10.20;81.90
70366;DHT22;57787;48.216;12.396;2023-11-21T14:06:56;10.20;82.60
70366;DHT22;57787;48.216;12.396;2023-11-21T14:09:37;10.10;82.40
70366;DHT22;57787;48.216;12.396;2023-11-21T14:12:17;10.10;82.60
70366;DHT22;57787;48.216;12.396;2023-11-21T14:14:44;10.00;81.70
70366;DHT22;57787;48.216;12.396;2023-11-21T14:17:18;10.00;82.70
70366;DHT22;57787;48.216;12.396;2023-11-21T14:19:49;9.90;83.10
70366;DHT22;57787;48.216;12.396;2023-11-21T14:22:20;9.90;83.30
70366;DHT22;57787;48.216;12.396;2023-11-21T14:24:47;9.80;82.70
70366;DHT22;57787;48.216;12.396;2023-11-21T14:27:19;9.80;83.00
70366;DHT22;57787;48.216;12.396;2023-11-21T14:29:46;9.80;83.40
70366;DHT22;57787;48.216;12.396;2023-11-21T14:32:16;9.80;83.30
70366;DHT22;57787;48.216;12.396;2023-11-21T14:34:43;9.70;83.60
70366;DHT22;57787;48.216;12.396;2023-11-21T14:37:14;9.60;84.00
70366;DHT22;57787;48.216;12.396;2023-11-21T14:39:40;9.50;83.90
70366;DHT22;57787;48.216;12.396;2023-11-21T14:42:14;9.40;84.30
70366;DHT22;57787;48.216;12.396;2023-11-21T14:44:42;9.30;84.50
70366;DHT22;57787;48.216;12.396;2023-11-21T14:47:09;9.30;84.60
70366;DHT22;57787;48.216;12.396;2023-11-21T14:49:44;9.30;85.00
70366;DHT22;57787;48.216;12.396;2023-11-21T14:52:19;9.30;85.30
70366;DHT22;57787;48.216;12.396;2023-11-21T14:55:01;9.20;85.50
70366;DHT22;57787;48.216;12.396;2023-11-21T14:57:46;9.20;85.70
70366;DHT22;57787;48.216;12.396;2023-11-21T15:00:17;9.10;85.70
70366;DHT22;57787;48.216;12.396;2023-11-21T15:03:03;9.10;86.00
70366;DHT22;57787;48.216;12.396;2023-11-21T15:05:31;9.00;86.00
70366;DHT22;57787;48.216;12.396;2023-11-21T15:08:02;9.00;86.10
70366;DHT22;57787;48.216;12.396;2023-11-21T15:10:48;9.00;86.40
70366;DHT22;57787;48.216;12.396;2023-11-21T15:13:21;8.90;86.40
70366;DHT22;57787;48.216;12.396;2023-11-21T15:15:57;8.90;86.70
70366;DHT22;57787;48.216;12.396;2023-11-21T15:18:30;8.80;86.60
70366;DHT22;57787;48.216;12.396;2023-11-21T15:21:01;8.80;86.60
70366;DHT22;57787;48.216;12.396;2023-11-21T15:23:30;8.80;86.50
70366;DHT22;57787;48.216;12.396;2023-11-21T15:26:01;8.70;86.60
70366;DHT22;57787;48.216;12.396;2023-11-21T15:28:30;8.70;86.60
70366;DHT22;57787;48.216;12.396;2023-11-21T15:31:01;8.70;86.90
70366;DHT22;57787;48.216;12.396;2023-11-21T15:33:30;8.70;87.00
70366;DHT22;57787;48.216;12.396;2023-11-21T15:35:57;8.60;87.00
70366;DHT22;57787;48.216;12.396;2023-11-21T15:38:25;8.60;87.00
70366;DHT22;57787;48.216;12.396;2023-11-21T15:40:54;8.60;86.90
70366;DHT22;57787;48.216;12.396;2023-11-21T15:43:21;8.60;87.00
70366;DHT22;57787;48.216;12.396;2023-11-21T15:45:48;8.50;87.00
70366;DHT22;57787;48.216;12.396;2023-11-21T15:48:16;8.50;87.10
70366;DHT22;57787;48.216;12.396;2023-11-21T15:50:44;8.50;87.00